sensor_id;sensor_type;location;lat;lon;timestamp;temperature;humidity
18753;DHT22;9505;50.882;5.350;2023-08-20T00:00:13;19.40;99.90
18753;DHT22;9505;50.882;5.350;2023-08-20T00:02:42;19.40;99.90
18753;DHT22;9505;50.882;5.350;2023-08-20T00:05:09;19.40;99.90
18753;DHT22;9505;50.882;5.350;2023-08-20T00:07:35;19.40;99.90
18753;DHT22;9505;50.882;5.350;2023-08-20T00:10:02;19.40;99.90
18753;DHT22;9505;50.882;5.350;2023-08-20T00:12:30;19.50;99.90
18753;DHT22;9505;50.882;5.350;2023-08-20T00:15:01;19.50;99.90
18753;DHT22;9505;50.882;5.350;2023-08-20T00:17:37;19.50;99.90
18753;DHT22;9505;50.882;5.350;2023-08-20T00:20:07;19.60;99.90
18753;DHT22;9505;50.882;5.350;2023-08-20T00:22:43;19.60;99.90
18753;DHT22;9505;50.882;5.350;2023-08-20T00:25:11;19.60;99.90
18753;DHT22;9505;50.882;5.350;2023-08-20T00:27:38;19.60;99.90
18753;DHT22;9505;50.882;5.350;2023-08-20T00:30:04;19.50;99.90
18753;DHT22;9505;50.882;5.350;2023-08-20T00:32:30;19.50;99.90
18753;DHT22;9505;50.882;5.350;2023-08-20T00:34:55;19.50;99.90
18753;DHT22;9505;50.882;5.350;2023-08-20T00:37:21;19.50;99.90
18753;DHT22;9505;50.882;5.350;2023-08-20T00:39:47;19.40;99.90
18753;DHT22;9505;50.882;5.350;2023-08-20T00:42:13;19.40;99.90
18753;DHT22;9505;50.882;5.350;2023-08-20T00:44:42;19.30;99.90
18753;DHT22;9505;50.882;5.350;2023-08-20T00:47:10;19.30;99.90
18753;DHT22;9505;50.882;5.350;2023-08-20T00:49:36;19.20;99.90
18753;DHT22;9505;50.882;5.350;2023-08-20T00:52:03;19.20;99.90
18753;DHT22;9505;50.882;5.350;2023-08-20T00:54:29;19.20;99.90
18753;DHT22;9505;50.882;5.350;2023-08-20T00:56:57;19.10;99.90
18753;DHT22;9505;50.882;5.350;2023-08-20T00:59:24;19.10;99.90
18753;DHT22;9505;50.882;5.350;2023-08-20T01:01:50;19.00;99.90
18753;DHT22;9505;50.882;5.350;2023-08-20T01:04:16;19.00;99.90
18753;DHT22;9505;50.882;5.350;2023-08-20T01:11:49;18.80;99.90
18753;DHT22;9505;50.882;5.350;2023-08-20T01:14:17;18.80;99.90
18753;DHT22;9505;50.882;5.350;2023-08-20T01:16:44;18.80;99.90
18753;DHT22;9505;50.882;5.350;2023-08-20T01:19:14;18.70;99.90
18753;DHT22;9505;50.882;5.350;2023-08-20T01:22:05;18.60;99.90
18753;DHT22;9505;50.882;5.350;2023-08-20T01:30:42;18.60;99.90
18753;DHT22;9505;50.882;5.350;2023-08-20T01:33:09;18.60;99.90
18753;DHT22;9505;50.882;5.350;2023-08-20T01:35:36;18.50;99.90
18753;DHT22;9505;50.882;5.350;2023-08-20T01:38:02;18.50;99.90
18753;DHT22;9505;50.882;5.350;2023-08-20T01:40:28;18.50;99.90
18753;DHT22;9505;50.882;5.350;2023-08-20T01:42:54;18.40;99.90
18753;DHT22;9505;50.882;5.350;2023-08-20T01:45:19;18.40;99.90
18753;DHT22;9505;50.882;5.350;2023-08-20T01:47:47;18.40;99.90
18753;DHT22;9505;50.882;5.350;2023-08-20T01:50:12;18.40;99.90
18753;DHT22;9505;50.882;5.350;2023-08-20T01:52:38;18.30;99.90
18753;DHT22;9505;50.882;5.350;2023-08-20T01:55:04;18.30;99.90
18753;DHT22;9505;50.882;5.350;2023-08-20T01:57:30;18.20;99.90
18753;DHT22;9505;50.882;5.350;2023-08-20T01:59:57;18.20;99.90
18753;DHT22;9505;50.882;5.350;2023-08-20T02:02:23;18.10;99.90
18753;DHT22;9505;50.882;5.350;2023-08-20T02:04:49;18.20;99.90
18753;DHT22;9505;50.882;5.350;2023-08-20T02:07:15;18.10;99.90
18753;DHT22;9505;50.882;5.350;2023-08-20T02:09:41;18.20;99.90
18753;DHT22;9505;50.882;5.350;2023-08-20T02:12:06;18.30;99.90
18753;DHT22;9505;50.882;5.350;2023-08-20T02:14:32;18.30;99.90
18753;DHT22;9505;50.882;5.350;2023-08-20T02:17:02;18.40;99.90
18753;DHT22;9505;50.882;5.350;2023-08-20T02:19:27;18.40;99.90
18753;DHT22;9505;50.882;5.350;2023-08-20T02:21:53;18.40;99.90
18753;DHT22;9505;50.882;5.350;2023-08-20T02:24:19;18.40;99.90
18753;DHT22;9505;50.882;5.350;2023-08-20T02:26:45;18.30;99.90
18753;DHT22;9505;50.882;5.350;2023-08-20T02:29:10;18.30;99.90
18753;DHT22;9505;50.882;5.350;2023-08-20T02:31:36;18.20;99.90
18753;DHT22;9505;50.882;5.350;2023-08-20T02:34:02;18.20;99.90
18753;DHT22;9505;50.882;5.350;2023-08-20T02:36:28;18.20;99.90
18753;DHT22;9505;50.882;5.350;2023-08-20T02:38:54;18.20;99.90
18753;DHT22;9505;50.882;5.350;2023-08-20T02:41:19;18.10;99.90
18753;DHT22;9505;50.882;5.350;2023-08-20T02:43:45;18.10;99.90
18753;DHT22;9505;50.882;5.350;2023-08-20T02:46:11;18.00;99.90
18753;DHT22;9505;50.882;5.350;2023-08-20T02:48:36;18.00;99.90
18753;DHT22;9505;50.882;5.350;2023-08-20T02:51:02;18.00;99.90
18753;DHT22;9505;50.882;5.350;2023-08-20T02:53:28;18.00;99.90
18753;DHT22;9505;50.882;5.350;2023-08-20T02:55:54;17.90;99.90
18753;DHT22;9505;50.882;5.350;2023-08-20T02:58:21;17.90;99.90
18753;DHT22;9505;50.882;5.350;2023-08-20T03:00:47;17.90;99.90
18753;DHT22;9505;50.882;5.350;2023-08-20T03:03:13;18.00;99.90
18753;DHT22;9505;50.882;5.350;2023-08-20T03:05:39;18.00;99.90
18753;DHT22;9505;50.882;5.350;2023-08-20T03:08:05;18.20;99.90
18753;DHT22;9505;50.882;5.350;2023-08-20T03:10:31;18.20;99.90
18753;DHT22;9505;50.882;5.350;2023-08-20T03:12:58;18.10;99.90
18753;DHT22;9505;50.882;5.350;2023-08-20T03:15:24;18.20;99.90
18753;DHT22;9505;50.882;5.350;2023-08-20T03:17:49;18.10;99.90
18753;DHT22;9505;50.882;5.350;2023-08-20T03:20:15;18.20;99.90
18753;DHT22;9505;50.882;5.350;2023-08-20T03:22:41;18.20;99.90
18753;DHT22;9505;50.882;5.350;2023-08-20T03:25:07;18.20;99.90
18753;DHT22;9505;50.882;5.350;2023-08-20T03:27:33;18.20;99.90
18753;DHT22;9505;50.882;5.350;2023-08-20T03:29:58;18.20;99.90
18753;DHT22;9505;50.882;5.350;2023-08-20T03:32:24;18.20;99.90
18753;DHT22;9505;50.882;5.350;2023-08-20T03:34:50;18.30;99.90
18753;DHT22;9505;50.882;5.350;2023-08-20T03:37:16;18.30;99.90
18753;DHT22;9505;50.882;5.350;2023-08-20T03:39:42;18.30;99.90
18753;DHT22;9505;50.882;5.350;2023-08-20T03:42:08;18.20;99.90
18753;DHT22;9505;50.882;5.350;2023-08-20T03:44:33;18.20;99.90
18753;DHT22;9505;50.882;5.350;2023-08-20T03:46:59;18.20;99.90
18753;DHT22;9505;50.882;5.350;2023-08-20T03:49:24;18.20;99.90
18753;DHT22;9505;50.882;5.350;2023-08-20T03:51:50;18.20;99.90
18753;DHT22;9505;50.882;5.350;2023-08-20T03:54:16;18.20;99.90
18753;DHT22;9505;50.882;5.350;2023-08-20T03:56:41;18.20;99.90
18753;DHT22;9505;50.882;5.350;2023-08-20T03:59:07;18.20;99.90
18753;DHT22;9505;50.882;5.350;2023-08-20T04:01:34;18.10;99.90
18753;DHT22;9505;50.882;5.350;2023-08-20T04:04:01;18.00;99.90
18753;DHT22;9505;50.882;5.350;2023-08-20T04:06:27;17.90;99.90
18753;DHT22;9505;50.882;5.350;2023-08-20T04:08:52;17.90;99.90
18753;DHT22;9505;50.882;5.350;2023-08-20T04:11:18;17.90;99.90
18753;DHT22;9505;50.882;5.350;2023-08-20T04:13:43;18.00;99.90
18753;DHT22;9505;50.882;5.350;2023-08-20T04:16:10;17.90;99.90
18753;DHT22;9505;50.882;5.350;2023-08-20T04:18:36;17.90;99.90
18753;DHT22;9505;50.882;5.350;2023-08-20T04:21:01;17.90;99.90
18753;DHT22;9505;50.882;5.350;2023-08-20T04:23:27;17.80;99.90
18753;DHT22;9505;50.882;5.350;2023-08-20T04:25:53;17.80;99.90
18753;DHT22;9505;50.882;5.350;2023-08-20T04:28:18;17.70;99.90
18753;DHT22;9505;50.882;5.350;2023-08-20T04:30:44;17.70;99.90
18753;DHT22;9505;50.882;5.350;2023-08-20T04:33:10;17.70;99.90
18753;DHT22;9505;50.882;5.350;2023-08-20T04:35:35;17.70;99.90
18753;DHT22;9505;50.882;5.350;2023-08-20T04:38:02;17.70;99.90
18753;DHT22;9505;50.882;5.350;2023-08-20T04:40:28;17.70;99.90
18753;DHT22;9505;50.882;5.350;2023-08-20T04:42:54;17.80;99.90
18753;DHT22;9505;50.882;5.350;2023-08-20T04:45:19;17.70;99.90
18753;DHT22;9505;50.882;5.350;2023-08-20T04:47:46;17.80;99.90
18753;DHT22;9505;50.882;5.350;2023-08-20T04:50:12;17.80;99.90
18753;DHT22;9505;50.882;5.350;2023-08-20T04:52:38;17.80;99.90
18753;DHT22;9505;50.882;5.350;2023-08-20T04:55:04;17.80;99.90
18753;DHT22;9505;50.882;5.350;2023-08-20T04:57:31;17.80;99.90
18753;DHT22;9505;50.882;5.350;2023-08-20T04:59:57;17.90;99.90
18753;DHT22;9505;50.882;5.350;2023-08-20T05:02:23;18.00;99.90
18753;DHT22;9505;50.882;5.350;2023-08-20T05:04:49;18.10;99.90
18753;DHT22;9505;50.882;5.350;2023-08-20T05:07:15;18.20;99.90
18753;DHT22;9505;50.882;5.350;2023-08-20T05:09:40;18.30;99.90
18753;DHT22;9505;50.882;5.350;2023-08-20T05:12:06;18.40;99.90
18753;DHT22;9505;50.882;5.350;2023-08-20T05:14:32;18.60;99.90
18753;DHT22;9505;50.882;5.350;2023-08-20T05:16:58;18.60;99.90
18753;DHT22;9505;50.882;5.350;2023-08-20T05:19:24;18.60;99.90
18753;DHT22;9505;50.882;5.350;2023-08-20T05:21:49;18.60;99.90
18753;DHT22;9505;50.882;5.350;2023-08-20T05:24:15;18.60;99.90
18753;DHT22;9505;50.882;5.350;2023-08-20T05:26:41;18.70;99.90
18753;DHT22;9505;50.882;5.350;2023-08-20T05:29:06;18.80;99.90
18753;DHT22;9505;50.882;5.350;2023-08-20T05:31:33;19.00;99.90
18753;DHT22;9505;50.882;5.350;2023-08-20T05:33:59;19.40;99.90
18753;DHT22;9505;50.882;5.350;2023-08-20T05:36:24;19.80;99.90
18753;DHT22;9505;50.882;5.350;2023-08-20T05:38:50;20.10;99.90
18753;DHT22;9505;50.882;5.350;2023-08-20T05:41:16;20.70;99.90
18753;DHT22;9505;50.882;5.350;2023-08-20T05:43:41;21.70;99.90
18753;DHT22;9505;50.882;5.350;2023-08-20T05:46:07;22.70;99.90
18753;DHT22;9505;50.882;5.350;2023-08-20T05:48:33;23.20;99.90
18753;DHT22;9505;50.882;5.350;2023-08-20T05:50:58;23.30;99.90
18753;DHT22;9505;50.882;5.350;2023-08-20T05:53:24;23.30;99.90
18753;DHT22;9505;50.882;5.350;2023-08-20T05:55:49;24.00;99.90
18753;DHT22;9505;50.882;5.350;2023-08-20T05:58:15;24.60;99.90
18753;DHT22;9505;50.882;5.350;2023-08-20T06:00:41;25.70;99.90
18753;DHT22;9505;50.882;5.350;2023-08-20T06:03:07;26.60;99.90
18753;DHT22;9505;50.882;5.350;2023-08-20T06:05:35;26.80;99.90
18753;DHT22;9505;50.882;5.350;2023-08-20T06:08:01;26.90;99.90
18753;DHT22;9505;50.882;5.350;2023-08-20T06:10:26;27.50;99.90
18753;DHT22;9505;50.882;5.350;2023-08-20T06:12:52;28.10;99.90
18753;DHT22;9505;50.882;5.350;2023-08-20T06:15:18;27.90;99.90
18753;DHT22;9505;50.882;5.350;2023-08-20T06:17:44;27.20;99.90
18753;DHT22;9505;50.882;5.350;2023-08-20T06:20:10;26.60;99.90
18753;DHT22;9505;50.882;5.350;2023-08-20T06:22:40;27.10;99.90
18753;DHT22;9505;50.882;5.350;2023-08-20T06:25:06;28.10;99.90
18753;DHT22;9505;50.882;5.350;2023-08-20T06:27:32;28.70;99.90
18753;DHT22;9505;50.882;5.350;2023-08-20T06:29:57;29.60;99.90
18753;DHT22;9505;50.882;5.350;2023-08-20T06:32:23;29.90;99.90
18753;DHT22;9505;50.882;5.350;2023-08-20T06:34:49;30.40;99.90
18753;DHT22;9505;50.882;5.350;2023-08-20T06:37:15;30.40;99.90
18753;DHT22;9505;50.882;5.350;2023-08-20T06:39:40;30.60;99.90
18753;DHT22;9505;50.882;5.350;2023-08-20T06:42:06;30.40;99.90
18753;DHT22;9505;50.882;5.350;2023-08-20T06:44:32;30.50;99.90
18753;DHT22;9505;50.882;5.350;2023-08-20T06:46:57;30.30;99.90
18753;DHT22;9505;50.882;5.350;2023-08-20T06:49:23;30.30;99.90
18753;DHT22;9505;50.882;5.350;2023-08-20T06:51:49;30.20;99.90
18753;DHT22;9505;50.882;5.350;2023-08-20T06:54:15;30.10;99.90
18753;DHT22;9505;50.882;5.350;2023-08-20T06:56:41;29.90;99.90
18753;DHT22;9505;50.882;5.350;2023-08-20T06:59:07;30.10;99.90
18753;DHT22;9505;50.882;5.350;2023-08-20T07:01:33;30.70;99.90
18753;DHT22;9505;50.882;5.350;2023-08-20T07:03:58;31.30;99.90
18753;DHT22;9505;50.882;5.350;2023-08-20T07:06:24;31.80;99.90
18753;DHT22;9505;50.882;5.350;2023-08-20T07:08:50;32.00;99.90
18753;DHT22;9505;50.882;5.350;2023-08-20T07:11:16;32.10;99.90
18753;DHT22;9505;50.882;5.350;2023-08-20T07:13:41;32.50;99.90
18753;DHT22;9505;50.882;5.350;2023-08-20T07:16:07;33.00;99.90
18753;DHT22;9505;50.882;5.350;2023-08-20T07:18:33;33.30;99.90
18753;DHT22;9505;50.882;5.350;2023-08-20T07:21:00;33.30;99.90
18753;DHT22;9505;50.882;5.350;2023-08-20T07:23:25;34.10;99.90
18753;DHT22;9505;50.882;5.350;2023-08-20T07:25:51;34.40;99.40
18753;DHT22;9505;50.882;5.350;2023-08-20T07:28:18;34.60;98.50
18753;DHT22;9505;50.882;5.350;2023-08-20T07:31:06;35.00;98.00
18753;DHT22;9505;50.882;5.350;2023-08-20T07:33:32;34.70;97.30
18753;DHT22;9505;50.882;5.350;2023-08-20T07:35:57;34.80;96.80
18753;DHT22;9505;50.882;5.350;2023-08-20T07:38:23;35.40;95.80
18753;DHT22;9505;50.882;5.350;2023-08-20T07:40:49;35.90;95.50
18753;DHT22;9505;50.882;5.350;2023-08-20T07:43:14;35.90;93.30
18753;DHT22;9505;50.882;5.350;2023-08-20T07:45:40;34.90;94.50
18753;DHT22;9505;50.882;5.350;2023-08-20T07:48:05;35.30;95.20
18753;DHT22;9505;50.882;5.350;2023-08-20T07:50:31;36.10;93.40
18753;DHT22;9505;50.882;5.350;2023-08-20T07:52:57;36.10;93.00
18753;DHT22;9505;50.882;5.350;2023-08-20T07:55:22;35.50;93.30
18753;DHT22;9505;50.882;5.350;2023-08-20T07:57:48;35.70;93.00
18753;DHT22;9505;50.882;5.350;2023-08-20T08:00:15;34.70;93.80
18753;DHT22;9505;50.882;5.350;2023-08-20T08:02:41;34.50;94.00
18753;DHT22;9505;50.882;5.350;2023-08-20T08:05:07;34.20;94.40
18753;DHT22;9505;50.882;5.350;2023-08-20T08:07:33;34.50;94.40
18753;DHT22;9505;50.882;5.350;2023-08-20T08:09:58;34.90;93.60
18753;DHT22;9505;50.882;5.350;2023-08-20T08:12:24;34.70;94.50
18753;DHT22;9505;50.882;5.350;2023-08-20T08:14:50;33.90;94.70
18753;DHT22;9505;50.882;5.350;2023-08-20T08:17:16;31.60;97.70
18753;DHT22;9505;50.882;5.350;2023-08-20T08:19:41;30.40;99.90
18753;DHT22;9505;50.882;5.350;2023-08-20T08:22:07;30.20;99.90
18753;DHT22;9505;50.882;5.350;2023-08-20T08:24:32;29.50;99.90
18753;DHT22;9505;50.882;5.350;2023-08-20T08:26:58;29.30;99.90
18753;DHT22;9505;50.882;5.350;2023-08-20T08:29:24;28.20;99.90
18753;DHT22;9505;50.882;5.350;2023-08-20T08:31:49;27.90;99.90
18753;DHT22;9505;50.882;5.350;2023-08-20T08:34:15;27.70;99.90
18753;DHT22;9505;50.882;5.350;2023-08-20T08:36:41;27.50;99.90
18753;DHT22;9505;50.882;5.350;2023-08-20T08:39:06;27.60;99.90
18753;DHT22;9505;50.882;5.350;2023-08-20T08:41:35;27.50;99.90
18753;DHT22;9505;50.882;5.350;2023-08-20T08:44:04;27.30;99.90
18753;DHT22;9505;50.882;5.350;2023-08-20T08:46:30;27.60;99.90
18753;DHT22;9505;50.882;5.350;2023-08-20T08:48:57;27.50;99.90
18753;DHT22;9505;50.882;5.350;2023-08-20T08:51:24;27.70;99.90
18753;DHT22;9505;50.882;5.350;2023-08-20T08:53:51;28.10;99.90
18753;DHT22;9505;50.882;5.350;2023-08-20T08:56:17;28.60;99.90
18753;DHT22;9505;50.882;5.350;2023-08-20T08:58:42;28.80;99.90
18753;DHT22;9505;50.882;5.350;2023-08-20T09:01:08;28.50;99.90
18753;DHT22;9505;50.882;5.350;2023-08-20T09:03:34;28.10;99.90
18753;DHT22;9505;50.882;5.350;2023-08-20T09:06:01;28.00;99.90
18753;DHT22;9505;50.882;5.350;2023-08-20T09:08:31;28.00;99.90
18753;DHT22;9505;50.882;5.350;2023-08-20T09:11:00;28.00;99.90
18753;DHT22;9505;50.882;5.350;2023-08-20T09:13:42;28.10;99.90
18753;DHT22;9505;50.882;5.350;2023-08-20T09:16:10;28.50;99.90
18753;DHT22;9505;50.882;5.350;2023-08-20T09:21:10;28.50;99.90
18753;DHT22;9505;50.882;5.350;2023-08-20T09:23:36;28.40;99.90
18753;DHT22;9505;50.882;5.350;2023-08-20T09:26:04;28.70;99.90
18753;DHT22;9505;50.882;5.350;2023-08-20T09:28:46;28.60;99.90
18753;DHT22;9505;50.882;5.350;2023-08-20T09:31:12;29.10;99.90
18753;DHT22;9505;50.882;5.350;2023-08-20T09:33:51;29.60;99.90
18753;DHT22;9505;50.882;5.350;2023-08-20T09:36:17;29.80;99.90
18753;DHT22;9505;50.882;5.350;2023-08-20T09:38:43;29.30;99.90
18753;DHT22;9505;50.882;5.350;2023-08-20T09:41:09;29.00;99.90
18753;DHT22;9505;50.882;5.350;2023-08-20T09:43:38;28.50;99.90
18753;DHT22;9505;50.882;5.350;2023-08-20T09:46:05;28.70;99.90
18753;DHT22;9505;50.882;5.350;2023-08-20T09:48:34;28.70;99.90
18753;DHT22;9505;50.882;5.350;2023-08-20T09:51:10;28.80;99.90
18753;DHT22;9505;50.882;5.350;2023-08-20T09:53:45;29.00;99.90
18753;DHT22;9505;50.882;5.350;2023-08-20T09:56:27;29.10;99.90
18753;DHT22;9505;50.882;5.350;2023-08-20T09:58:55;29.10;99.90
18753;DHT22;9505;50.882;5.350;2023-08-20T10:01:20;29.10;99.90
18753;DHT22;9505;50.882;5.350;2023-08-20T10:03:47;29.00;99.90
18753;DHT22;9505;50.882;5.350;2023-08-20T10:06:12;29.40;99.90
18753;DHT22;9505;50.882;5.350;2023-08-20T10:08:38;29.80;99.90
18753;DHT22;9505;50.882;5.350;2023-08-20T10:11:04;30.30;99.90
18753;DHT22;9505;50.882;5.350;2023-08-20T10:13:30;30.20;99.90
18753;DHT22;9505;50.882;5.350;2023-08-20T10:15:56;30.10;99.90
18753;DHT22;9505;50.882;5.350;2023-08-20T10:18:22;30.10;99.90
18753;DHT22;9505;50.882;5.350;2023-08-20T10:20:51;29.90;99.90
18753;DHT22;9505;50.882;5.350;2023-08-20T10:23:22;29.30;99.90
18753;DHT22;9505;50.882;5.350;2023-08-20T10:25:52;28.80;99.90
18753;DHT22;9505;50.882;5.350;2023-08-20T10:28:27;29.20;99.90
18753;DHT22;9505;50.882;5.350;2023-08-20T10:33:29;30.30;99.90
18753;DHT22;9505;50.882;5.350;2023-08-20T10:35:55;30.40;99.90
18753;DHT22;9505;50.882;5.350;2023-08-20T10:38:22;30.30;99.90
18753;DHT22;9505;50.882;5.350;2023-08-20T10:40:55;30.40;99.90
18753;DHT22;9505;50.882;5.350;2023-08-20T10:43:34;30.30;99.90
18753;DHT22;9505;50.882;5.350;2023-08-20T10:48:37;30.20;99.90
18753;DHT22;9505;50.882;5.350;2023-08-20T10:51:10;30.60;99.90
18753;DHT22;9505;50.882;5.350;2023-08-20T10:53:36;30.80;99.90
18753;DHT22;9505;50.882;5.350;2023-08-20T10:56:15;31.00;99.90
18753;DHT22;9505;50.882;5.350;2023-08-20T10:58:46;31.30;99.90
18753;DHT22;9505;50.882;5.350;2023-08-20T11:01:20;31.30;99.90
18753;DHT22;9505;50.882;5.350;2023-08-20T11:03:47;31.00;99.90
18753;DHT22;9505;50.882;5.350;2023-08-20T11:06:14;31.50;99.90
18753;DHT22;9505;50.882;5.350;2023-08-20T11:08:40;31.10;99.90
18753;DHT22;9505;50.882;5.350;2023-08-20T11:11:07;30.70;99.90
18753;DHT22;9505;50.882;5.350;2023-08-20T11:13:34;30.30;99.90
18753;DHT22;9505;50.882;5.350;2023-08-20T11:16:01;29.70;99.90
18753;DHT22;9505;50.882;5.350;2023-08-20T11:18:27;29.60;99.90
18753;DHT22;9505;50.882;5.350;2023-08-20T11:20:54;29.20;99.90
18753;DHT22;9505;50.882;5.350;2023-08-20T11:23:21;29.20;99.90
18753;DHT22;9505;50.882;5.350;2023-08-20T11:25:47;29.80;99.90
18753;DHT22;9505;50.882;5.350;2023-08-20T11:28:12;30.10;99.90
18753;DHT22;9505;50.882;5.350;2023-08-20T11:30:38;30.50;99.90
18753;DHT22;9505;50.882;5.350;2023-08-20T11:33:04;30.80;99.90
18753;DHT22;9505;50.882;5.350;2023-08-20T11:35:32;30.90;99.90
18753;DHT22;9505;50.882;5.350;2023-08-20T11:37:58;30.80;99.90
18753;DHT22;9505;50.882;5.350;2023-08-20T11:40:24;31.00;99.90
18753;DHT22;9505;50.882;5.350;2023-08-20T11:42:50;30.90;99.90
18753;DHT22;9505;50.882;5.350;2023-08-20T11:45:16;30.50;99.90
18753;DHT22;9505;50.882;5.350;2023-08-20T11:47:42;29.60;99.90
18753;DHT22;9505;50.882;5.350;2023-08-20T11:50:08;29.80;99.90
18753;DHT22;9505;50.882;5.350;2023-08-20T11:52:36;30.30;99.90
18753;DHT22;9505;50.882;5.350;2023-08-20T11:55:02;30.70;99.90
18753;DHT22;9505;50.882;5.350;2023-08-20T11:57:31;31.00;99.90
18753;DHT22;9505;50.882;5.350;2023-08-20T12:00:03;31.10;99.90
18753;DHT22;9505;50.882;5.350;2023-08-20T12:02:30;31.10;99.90
18753;DHT22;9505;50.882;5.350;2023-08-20T12:04:58;31.40;99.90
18753;DHT22;9505;50.882;5.350;2023-08-20T12:07:27;31.50;99.90
18753;DHT22;9505;50.882;5.350;2023-08-20T12:09:54;31.20;99.90
18753;DHT22;9505;50.882;5.350;2023-08-20T12:12:20;31.00;99.90
18753;DHT22;9505;50.882;5.350;2023-08-20T12:14:47;30.80;99.90
18753;DHT22;9505;50.882;5.350;2023-08-20T12:17:17;30.60;99.90
18753;DHT22;9505;50.882;5.350;2023-08-20T12:19:42;30.60;99.90
18753;DHT22;9505;50.882;5.350;2023-08-20T12:22:08;30.20;99.90
18753;DHT22;9505;50.882;5.350;2023-08-20T12:24:34;29.80;99.90
18753;DHT22;9505;50.882;5.350;2023-08-20T12:26:59;29.60;99.90
18753;DHT22;9505;50.882;5.350;2023-08-20T12:29:25;29.20;99.90
18753;DHT22;9505;50.882;5.350;2023-08-20T12:31:51;29.20;99.90
18753;DHT22;9505;50.882;5.350;2023-08-20T12:34:17;29.40;99.90
18753;DHT22;9505;50.882;5.350;2023-08-20T12:36:42;29.90;99.90
18753;DHT22;9505;50.882;5.350;2023-08-20T12:39:08;30.40;99.90
18753;DHT22;9505;50.882;5.350;2023-08-20T12:41:34;30.90;99.90
18753;DHT22;9505;50.882;5.350;2023-08-20T12:44:04;31.30;99.90
18753;DHT22;9505;50.882;5.350;2023-08-20T12:46:30;31.60;99.90
18753;DHT22;9505;50.882;5.350;2023-08-20T12:48:55;31.20;99.90
18753;DHT22;9505;50.882;5.350;2023-08-20T12:51:21;31.10;99.90
18753;DHT22;9505;50.882;5.350;2023-08-20T12:53:48;31.40;99.90
18753;DHT22;9505;50.882;5.350;2023-08-20T12:56:13;31.30;99.90
18753;DHT22;9505;50.882;5.350;2023-08-20T12:58:41;31.20;99.90
18753;DHT22;9505;50.882;5.350;2023-08-20T13:01:06;31.40;99.80
18753;DHT22;9505;50.882;5.350;2023-08-20T13:03:32;31.50;98.90
18753;DHT22;9505;50.882;5.350;2023-08-20T13:05:58;30.90;99.40
18753;DHT22;9505;50.882;5.350;2023-08-20T13:08:25;30.70;99.90
18753;DHT22;9505;50.882;5.350;2023-08-20T13:10:54;31.20;99.90
18753;DHT22;9505;50.882;5.350;2023-08-20T13:13:24;31.60;99.60
18753;DHT22;9505;50.882;5.350;2023-08-20T13:15:51;31.70;99.70
18753;DHT22;9505;50.882;5.350;2023-08-20T13:18:18;32.20;99.90
18753;DHT22;9505;50.882;5.350;2023-08-20T13:20:44;32.60;99.20
18753;DHT22;9505;50.882;5.350;2023-08-20T13:23:10;32.60;98.50
18753;DHT22;9505;50.882;5.350;2023-08-20T13:25:36;32.50;98.30
18753;DHT22;9505;50.882;5.350;2023-08-20T13:28:02;32.30;97.50
18753;DHT22;9505;50.882;5.350;2023-08-20T13:30:28;32.30;97.20
18753;DHT22;9505;50.882;5.350;2023-08-20T13:32:54;32.10;98.40
18753;DHT22;9505;50.882;5.350;2023-08-20T13:35:20;32.10;96.90
18753;DHT22;9505;50.882;5.350;2023-08-20T13:37:45;31.90;96.80
18753;DHT22;9505;50.882;5.350;2023-08-20T13:40:11;32.20;96.50
18753;DHT22;9505;50.882;5.350;2023-08-20T13:42:37;32.70;97.40
18753;DHT22;9505;50.882;5.350;2023-08-20T13:45:02;32.90;97.00
18753;DHT22;9505;50.882;5.350;2023-08-20T13:47:29;33.20;95.30
18753;DHT22;9505;50.882;5.350;2023-08-20T13:49:54;33.40;94.10
18753;DHT22;9505;50.882;5.350;2023-08-20T13:52:20;33.40;94.40
18753;DHT22;9505;50.882;5.350;2023-08-20T13:54:46;33.40;93.70
18753;DHT22;9505;50.882;5.350;2023-08-20T13:57:11;33.40;94.90
18753;DHT22;9505;50.882;5.350;2023-08-20T13:59:37;33.40;94.10
18753;DHT22;9505;50.882;5.350;2023-08-20T14:02:04;33.60;94.10
18753;DHT22;9505;50.882;5.350;2023-08-20T14:04:30;33.90;93.80
18753;DHT22;9505;50.882;5.350;2023-08-20T14:06:55;33.30;93.70
18753;DHT22;9505;50.882;5.350;2023-08-20T14:09:21;33.70;95.00
18753;DHT22;9505;50.882;5.350;2023-08-20T14:11:47;33.30;94.20
18753;DHT22;9505;50.882;5.350;2023-08-20T14:14:12;34.10;93.70
18753;DHT22;9505;50.882;5.350;2023-08-20T14:16:38;34.70;93.60
18753;DHT22;9505;50.882;5.350;2023-08-20T14:19:04;35.50;91.80
18753;DHT22;9505;50.882;5.350;2023-08-20T14:21:30;35.60;90.30
18753;DHT22;9505;50.882;5.350;2023-08-20T14:23:55;35.30;90.70
18753;DHT22;9505;50.882;5.350;2023-08-20T14:26:21;35.80;90.10
18753;DHT22;9505;50.882;5.350;2023-08-20T14:28:47;35.80;89.10
18753;DHT22;9505;50.882;5.350;2023-08-20T14:31:13;36.00;89.00
18753;DHT22;9505;50.882;5.350;2023-08-20T14:33:38;36.20;87.70
18753;DHT22;9505;50.882;5.350;2023-08-20T14:36:04;36.30;88.00
18753;DHT22;9505;50.882;5.350;2023-08-20T14:38:30;36.90;90.30
18753;DHT22;9505;50.882;5.350;2023-08-20T14:41:03;35.90;86.80
18753;DHT22;9505;50.882;5.350;2023-08-20T14:43:29;35.00;88.10
18753;DHT22;9505;50.882;5.350;2023-08-20T14:45:55;34.80;89.60
18753;DHT22;9505;50.882;5.350;2023-08-20T14:48:21;35.50;89.10
18753;DHT22;9505;50.882;5.350;2023-08-20T14:50:47;35.30;86.10
18753;DHT22;9505;50.882;5.350;2023-08-20T14:53:14;35.80;88.00
18753;DHT22;9505;50.882;5.350;2023-08-20T14:55:39;36.50;87.90
18753;DHT22;9505;50.882;5.350;2023-08-20T14:58:05;36.30;88.00
18753;DHT22;9505;50.882;5.350;2023-08-20T15:00:34;35.90;87.10
18753;DHT22;9505;50.882;5.350;2023-08-20T15:02:59;36.20;86.20
18753;DHT22;9505;50.882;5.350;2023-08-20T15:05:26;36.20;85.10
18753;DHT22;9505;50.882;5.350;2023-08-20T15:07:52;36.40;87.70
18753;DHT22;9505;50.882;5.350;2023-08-20T15:10:18;36.90;84.70
18753;DHT22;9505;50.882;5.350;2023-08-20T15:12:44;37.10;84.00
18753;DHT22;9505;50.882;5.350;2023-08-20T15:15:10;37.20;84.80
18753;DHT22;9505;50.882;5.350;2023-08-20T15:17:36;37.40;84.10
18753;DHT22;9505;50.882;5.350;2023-08-20T15:20:03;37.00;83.20
18753;DHT22;9505;50.882;5.350;2023-08-20T15:22:34;36.80;87.30
18753;DHT22;9505;50.882;5.350;2023-08-20T15:24:59;36.90;87.00
18753;DHT22;9505;50.882;5.350;2023-08-20T15:27:25;36.40;86.90
18753;DHT22;9505;50.882;5.350;2023-08-20T15:29:51;36.20;86.80
18753;DHT22;9505;50.882;5.350;2023-08-20T15:32:17;35.60;85.70
18753;DHT22;9505;50.882;5.350;2023-08-20T15:34:42;34.50;88.70
18753;DHT22;9505;50.882;5.350;2023-08-20T15:37:09;34.50;90.20
18753;DHT22;9505;50.882;5.350;2023-08-20T15:39:34;34.80;88.50
18753;DHT22;9505;50.882;5.350;2023-08-20T15:42:00;34.80;90.60
18753;DHT22;9505;50.882;5.350;2023-08-20T15:44:26;34.80;91.30
18753;DHT22;9505;50.882;5.350;2023-08-20T15:46:52;34.50;87.50
18753;DHT22;9505;50.882;5.350;2023-08-20T15:49:18;34.50;88.70
18753;DHT22;9505;50.882;5.350;2023-08-20T15:51:43;35.00;86.70
18753;DHT22;9505;50.882;5.350;2023-08-20T15:54:09;34.70;86.90
18753;DHT22;9505;50.882;5.350;2023-08-20T15:56:38;34.50;87.00
18753;DHT22;9505;50.882;5.350;2023-08-20T15:59:04;34.40;91.40